Oakton, Virginia
Current Conditions -  °F | °C
As of 12:52 AM on Thursday 18 Dec 2014 (Local Time) from KIAD Reporting Station
Broken Clouds Broken Clouds  
Wind Chill: 26°   Ceiling: 4800
Heat Index: 36°   Visibility: 10mi
Dew Point: 21°   Wind: 18mph
Humidity: 55%   Direction: 310°NW
Pressure: 30.09"   Gusts: 25mph
Location:  38.88°N, 77.3°W
Report Text: KIAD 180552Z 31016G22KT 10SM BKN048 02/M06 A3009 RMK AO2 SLP190 T00221061 10044 20017 51011
Loading
Personal Weather Stations






























Interactive Weather Map New forecast layout! Learn more

10-Day Weather Forecast

Advertisements
Track Severe Weather on mobile